sensor_id;sensor_type;location;lat;lon;timestamp;pressure;altitude;pressure_sealevel;temperature;humidity
19672;BME280;9983;51.114;13.788;2023-02-19T00:03:01;99290.75;;;10.14;100.00
19672;BME280;9983;51.114;13.788;2023-02-19T00:08:02;99267.31;;;10.16;100.00
19672;BME280;9983;51.114;13.788;2023-02-19T00:13:03;99271.63;;;10.25;100.00
19672;BME280;9983;51.114;13.788;2023-02-19T00:18:03;99259.38;;;10.53;100.00
19672;BME280;9983;51.114;13.788;2023-02-19T00:23:03;99256.38;;;10.25;100.00
19672;BME280;9983;51.114;13.788;2023-02-19T00:28:04;99265.94;;;10.28;100.00
19672;BME280;9983;51.114;13.788;2023-02-19T00:33:04;99254.13;;;10.60;100.00
19672;BME280;9983;51.114;13.788;2023-02-19T00:38:04;99250.78;;;10.95;100.00
19672;BME280;9983;51.114;13.788;2023-02-19T00:43:04;99247.34;;;10.49;100.00
19672;BME280;9983;51.114;13.788;2023-02-19T00:48:05;99237.03;;;9.84;100.00
19672;BME280;9983;51.114;13.788;2023-02-19T00:53:05;99236.81;;;10.17;100.00
19672;BME280;9983;51.114;13.788;2023-02-19T00:58:05;99241.22;;;10.10;100.00
19672;BME280;9983;51.114;13.788;2023-02-19T01:03:05;99240.91;;;10.05;100.00
19672;BME280;9983;51.114;13.788;2023-02-19T01:08:06;99222.63;;;9.85;100.00
19672;BME280;9983;51.114;13.788;2023-02-19T01:13:06;99216.81;;;10.05;100.00
19672;BME280;9983;51.114;13.788;2023-02-19T01:18:06;99211.81;;;10.02;100.00
19672;BME280;9983;51.114;13.788;2023-02-19T01:23:07;99194.81;;;9.95;100.00
19672;BME280;9983;51.114;13.788;2023-02-19T01:28:09;99195.28;;;10.21;100.00
19672;BME280;9983;51.114;13.788;2023-02-19T01:33:09;99178.63;;;10.11;100.00
19672;BME280;9983;51.114;13.788;2023-02-19T01:38:10;99161.81;;;10.17;100.00
19672;BME280;9983;51.114;13.788;2023-02-19T01:43:14;99144.69;;;10.26;100.00
19672;BME280;9983;51.114;13.788;2023-02-19T01:48:31;99151.84;;;10.11;100.00
19672;BME280;9983;51.114;13.788;2023-02-19T01:53:37;99152.59;;;9.97;100.00
19672;BME280;9983;51.114;13.788;2023-02-19T01:58:39;99148.84;;;10.06;100.00
19672;BME280;9983;51.114;13.788;2023-02-19T02:03:40;99150.28;;;9.94;100.00
19672;BME280;9983;51.114;13.788;2023-02-19T02:08:44;99139.13;;;9.59;100.00
19672;BME280;9983;51.114;13.788;2023-02-19T02:14:03;99129.72;;;9.63;100.00
19672;BME280;9983;51.114;13.788;2023-02-19T02:19:24;99132.66;;;9.76;100.00
19672;BME280;9983;51.114;13.788;2023-02-19T02:35:21;99114.66;;;9.39;100.00
19672;BME280;9983;51.114;13.788;2023-02-19T02:40:23;99099.81;;;9.37;100.00
19672;BME280;9983;51.114;13.788;2023-02-19T02:45:29;99111.28;;;9.14;100.00
19672;BME280;9983;51.114;13.788;2023-02-19T02:51:04;99088.16;;;9.75;100.00
19672;BME280;9983;51.114;13.788;2023-02-19T02:56:08;99088.28;;;9.36;100.00
19672;BME280;9983;51.114;13.788;2023-02-19T03:01:14;99073.63;;;9.47;100.00
19672;BME280;9983;51.114;13.788;2023-02-19T03:06:35;99069.09;;;9.25;100.00
19672;BME280;9983;51.114;13.788;2023-02-19T03:11:39;99069.53;;;9.05;100.00
19672;BME280;9983;51.114;13.788;2023-02-19T03:17:05;99062.19;;;9.07;100.00
19672;BME280;9983;51.114;13.788;2023-02-19T03:22:37;99057.19;;;9.04;100.00
19672;BME280;9983;51.114;13.788;2023-02-19T03:27:40;99048.38;;;9.72;100.00
19672;BME280;9983;51.114;13.788;2023-02-19T03:32:59;99037.38;;;9.67;100.00
19672;BME280;9983;51.114;13.788;2023-02-19T03:38:20;99046.53;;;9.73;100.00
19672;BME280;9983;51.114;13.788;2023-02-19T03:43:31;99034.84;;;9.88;100.00
19672;BME280;9983;51.114;13.788;2023-02-19T03:48:35;99033.47;;;10.30;100.00
19672;BME280;9983;51.114;13.788;2023-02-19T03:54:10;99025.50;;;10.22;100.00
19672;BME280;9983;51.114;13.788;2023-02-19T04:04:43;99016.66;;;10.36;100.00
19672;BME280;9983;51.114;13.788;2023-02-19T04:09:47;98996.72;;;10.53;100.00
19672;BME280;9983;51.114;13.788;2023-02-19T04:14:58;99000.03;;;10.26;100.00
19672;BME280;9983;51.114;13.788;2023-02-19T04:20:02;99005.44;;;10.03;100.00
19672;BME280;9983;51.114;13.788;2023-02-19T04:25:05;98993.00;;;10.54;100.00
19672;BME280;9983;51.114;13.788;2023-02-19T04:30:07;98980.44;;;10.40;100.00
19672;BME280;9983;51.114;13.788;2023-02-19T04:35:08;98976.16;;;10.02;100.00
19672;BME280;9983;51.114;13.788;2023-02-19T04:40:09;98985.06;;;9.42;100.00
19672;BME280;9983;51.114;13.788;2023-02-19T04:45:09;98979.66;;;9.50;100.00
19672;BME280;9983;51.114;13.788;2023-02-19T04:50:09;98974.63;;;9.47;100.00
19672;BME280;9983;51.114;13.788;2023-02-19T04:55:09;98992.00;;;9.51;100.00
19672;BME280;9983;51.114;13.788;2023-02-19T05:00:10;98991.84;;;9.52;100.00
19672;BME280;9983;51.114;13.788;2023-02-19T05:05:11;98981.13;;;9.30;100.00
19672;BME280;9983;51.114;13.788;2023-02-19T05:10:11;98985.25;;;9.18;100.00
19672;BME280;9983;51.114;13.788;2023-02-19T05:15:11;98999.44;;;9.41;100.00
19672;BME280;9983;51.114;13.788;2023-02-19T05:20:11;99013.22;;;9.30;100.00
19672;BME280;9983;51.114;13.788;2023-02-19T05:25:13;98998.63;;;9.18;100.00
19672;BME280;9983;51.114;13.788;2023-02-19T05:30:13;99012.03;;;9.09;100.00
19672;BME280;9983;51.114;13.788;2023-02-19T05:35:13;99003.25;;;9.24;100.00
19672;BME280;9983;51.114;13.788;2023-02-19T05:40:14;98989.22;;;9.22;100.00
19672;BME280;9983;51.114;13.788;2023-02-19T05:45:14;98990.53;;;9.26;100.00
19672;BME280;9983;51.114;13.788;2023-02-19T05:50:14;98986.66;;;9.05;100.00
19672;BME280;9983;51.114;13.788;2023-02-19T05:55:14;99003.97;;;9.18;100.00
19672;BME280;9983;51.114;13.788;2023-02-19T06:00:17;99008.59;;;9.24;100.00
19672;BME280;9983;51.114;13.788;2023-02-19T06:05:19;99000.47;;;9.17;100.00
19672;BME280;9983;51.114;13.788;2023-02-19T06:10:19;99013.84;;;9.17;100.00
19672;BME280;9983;51.114;13.788;2023-02-19T06:15:20;99017.28;;;9.26;100.00
19672;BME280;9983;51.114;13.788;2023-02-19T06:20:20;99013.84;;;9.40;100.00
19672;BME280;9983;51.114;13.788;2023-02-19T06:25:21;99032.88;;;9.45;100.00
19672;BME280;9983;51.114;13.788;2023-02-19T06:30:21;99040.34;;;9.27;100.00
19672;BME280;9983;51.114;13.788;2023-02-19T06:35:21;99036.66;;;9.28;100.00
19672;BME280;9983;51.114;13.788;2023-02-19T06:40:21;99037.13;;;9.08;100.00
19672;BME280;9983;51.114;13.788;2023-02-19T06:45:22;99049.72;;;9.23;100.00
19672;BME280;9983;51.114;13.788;2023-02-19T06:50:22;99054.00;;;9.32;100.00
19672;BME280;9983;51.114;13.788;2023-02-19T06:55:22;99053.25;;;9.46;100.00
19672;BME280;9983;51.114;13.788;2023-02-19T07:00:22;99064.09;;;9.22;100.00
19672;BME280;9983;51.114;13.788;2023-02-19T07:05:23;99073.69;;;9.39;100.00
19672;BME280;9983;51.114;13.788;2023-02-19T07:10:23;99082.78;;;9.30;100.00
19672;BME280;9983;51.114;13.788;2023-02-19T07:15:23;99107.94;;;9.12;100.00
19672;BME280;9983;51.114;13.788;2023-02-19T07:20:23;99118.97;;;9.18;100.00
19672;BME280;9983;51.114;13.788;2023-02-19T07:25:24;99125.47;;;9.46;100.00
19672;BME280;9983;51.114;13.788;2023-02-19T07:30:24;99139.66;;;9.24;100.00
19672;BME280;9983;51.114;13.788;2023-02-19T07:35:24;99161.56;;;9.58;100.00
19672;BME280;9983;51.114;13.788;2023-02-19T07:40:24;99167.97;;;9.49;100.00
19672;BME280;9983;51.114;13.788;2023-02-19T07:45:25;99187.25;;;8.89;100.00
19672;BME280;9983;51.114;13.788;2023-02-19T07:50:25;99194.91;;;9.00;100.00
19672;BME280;9983;51.114;13.788;2023-02-19T07:55:25;99202.31;;;8.82;100.00
19672;BME280;9983;51.114;13.788;2023-02-19T08:00:26;99217.66;;;8.80;100.00
19672;BME280;9983;51.114;13.788;2023-02-19T08:05:28;99224.38;;;8.76;100.00
19672;BME280;9983;51.114;13.788;2023-02-19T08:10:29;99233.69;;;8.07;100.00
19672;BME280;9983;51.114;13.788;2023-02-19T08:20:50;99264.38;;;8.03;100.00
19672;BME280;9983;51.114;13.788;2023-02-19T08:25:52;99285.78;;;7.61;100.00
19672;BME280;9983;51.114;13.788;2023-02-19T08:30:56;99308.56;;;7.97;100.00
19672;BME280;9983;51.114;13.788;2023-02-19T08:36:01;99330.09;;;7.62;100.00
19672;BME280;9983;51.114;13.788;2023-02-19T08:41:08;99334.28;;;7.65;100.00
19672;BME280;9983;51.114;13.788;2023-02-19T08:46:12;99340.59;;;7.55;100.00
19672;BME280;9983;51.114;13.788;2023-02-19T08:51:12;99364.03;;;7.18;100.00
19672;BME280;9983;51.114;13.788;2023-02-19T08:56:15;99380.19;;;7.16;100.00
19672;BME280;9983;51.114;13.788;2023-02-19T09:01:16;99405.19;;;6.98;100.00
19672;BME280;9983;51.114;13.788;2023-02-19T09:06:19;99421.72;;;6.66;100.00
19672;BME280;9983;51.114;13.788;2023-02-19T09:11:19;99428.66;;;6.76;100.00
19672;BME280;9983;51.114;13.788;2023-02-19T09:16:20;99456.03;;;6.51;100.00
19672;BME280;9983;51.114;13.788;2023-02-19T09:21:20;99481.75;;;6.60;100.00
19672;BME280;9983;51.114;13.788;2023-02-19T09:26:20;99486.59;;;6.47;100.00
19672;BME280;9983;51.114;13.788;2023-02-19T09:31:20;99504.44;;;6.64;100.00
19672;BME280;9983;51.114;13.788;2023-02-19T09:36:21;99508.69;;;6.57;100.00
19672;BME280;9983;51.114;13.788;2023-02-19T09:41:28;99516.59;;;6.49;100.00
19672;BME280;9983;51.114;13.788;2023-02-19T09:46:31;99531.91;;;6.65;100.00
19672;BME280;9983;51.114;13.788;2023-02-19T09:51:35;99528.91;;;6.77;100.00
19672;BME280;9983;51.114;13.788;2023-02-19T09:56:37;99535.25;;;7.12;100.00
19672;BME280;9983;51.114;13.788;2023-02-19T10:01:37;99555.88;;;6.92;100.00
19672;BME280;9983;51.114;13.788;2023-02-19T10:06:38;99555.06;;;6.92;100.00
19672;BME280;9983;51.114;13.788;2023-02-19T10:11:39;99567.75;;;7.25;100.00
19672;BME280;9983;51.114;13.788;2023-02-19T10:16:41;99580.22;;;7.24;100.00
19672;BME280;9983;51.114;13.788;2023-02-19T10:21:42;99583.13;;;7.67;100.00
19672;BME280;9983;51.114;13.788;2023-02-19T10:26:43;99611.41;;;7.59;100.00
19672;BME280;9983;51.114;13.788;2023-02-19T10:31:43;99611.56;;;7.40;100.00
19672;BME280;9983;51.114;13.788;2023-02-19T10:36:46;99608.44;;;7.27;100.00
19672;BME280;9983;51.114;13.788;2023-02-19T10:41:49;99620.56;;;7.12;100.00
19672;BME280;9983;51.114;13.788;2023-02-19T10:46:52;99636.28;;;7.15;100.00
19672;BME280;9983;51.114;13.788;2023-02-19T10:51:55;99642.69;;;6.67;100.00
19672;BME280;9983;51.114;13.788;2023-02-19T11:02:20;99658.47;;;7.60;100.00
19672;BME280;9983;51.114;13.788;2023-02-19T11:07:20;99663.91;;;6.86;100.00
19672;BME280;9983;51.114;13.788;2023-02-19T11:12:29;99670.56;;;7.10;100.00
19672;BME280;9983;51.114;13.788;2023-02-19T11:17:29;99675.84;;;6.82;100.00
19672;BME280;9983;51.114;13.788;2023-02-19T11:22:37;99689.47;;;6.79;100.00
19672;BME280;9983;51.114;13.788;2023-02-19T11:27:53;99698.16;;;6.81;100.00
19672;BME280;9983;51.114;13.788;2023-02-19T11:32:54;99698.97;;;6.92;100.00
19672;BME280;9983;51.114;13.788;2023-02-19T11:37:57;99710.53;;;6.73;100.00
19672;BME280;9983;51.114;13.788;2023-02-19T11:53:31;99719.56;;;7.36;100.00
19672;BME280;9983;51.114;13.788;2023-02-19T12:09:29;99743.19;;;7.94;100.00
19672;BME280;9983;51.114;13.788;2023-02-19T12:20:13;99751.06;;;7.13;100.00
19672;BME280;9983;51.114;13.788;2023-02-19T12:36:35;99758.53;;;7.37;100.00
19672;BME280;9983;51.114;13.788;2023-02-19T12:41:50;99749.34;;;7.22;100.00
19672;BME280;9983;51.114;13.788;2023-02-19T12:46:57;99741.19;;;7.60;100.00
19672;BME280;9983;51.114;13.788;2023-02-19T12:52:22;99746.47;;;7.88;100.00
19672;BME280;9983;51.114;13.788;2023-02-19T12:57:27;99740.38;;;8.13;100.00
19672;BME280;9983;51.114;13.788;2023-02-19T13:02:33;99743.13;;;8.57;100.00
19672;BME280;9983;51.114;13.788;2023-02-19T13:12:59;99770.41;;;8.86;95.47
19672;BME280;9983;51.114;13.788;2023-02-19T13:18:12;99785.44;;;9.47;88.49
19672;BME280;9983;51.114;13.788;2023-02-19T13:23:30;99781.84;;;9.64;85.33
19672;BME280;9983;51.114;13.788;2023-02-19T13:29:01;99782.72;;;10.23;84.37
19672;BME280;9983;51.114;13.788;2023-02-19T13:34:27;99786.56;;;9.70;80.37
19672;BME280;9983;51.114;13.788;2023-02-19T13:39:33;99790.81;;;9.47;82.34
19672;BME280;9983;51.114;13.788;2023-02-19T13:44:34;99794.25;;;8.26;85.84
19672;BME280;9983;51.114;13.788;2023-02-19T13:49:40;99802.78;;;8.12;89.50
19672;BME280;9983;51.114;13.788;2023-02-19T13:54:41;99810.28;;;8.26;91.57
19672;BME280;9983;51.114;13.788;2023-02-19T13:59:41;99809.72;;;8.05;88.30
19672;BME280;9983;51.114;13.788;2023-02-19T14:04:58;99814.28;;;8.58;87.38
19672;BME280;9983;51.114;13.788;2023-02-19T14:09:59;99808.50;;;8.45;87.12
19672;BME280;9983;51.114;13.788;2023-02-19T14:20:40;99827.34;;;8.61;83.48
19672;BME280;9983;51.114;13.788;2023-02-19T14:25:47;99826.22;;;8.89;83.36
19672;BME280;9983;51.114;13.788;2023-02-19T14:36:26;99822.44;;;9.85;80.22
19672;BME280;9983;51.114;13.788;2023-02-19T14:41:31;99830.72;;;9.66;78.37
19672;BME280;9983;51.114;13.788;2023-02-19T14:46:52;99831.13;;;9.87;79.93
19672;BME280;9983;51.114;13.788;2023-02-19T14:51:58;99842.81;;;8.75;84.32
19672;BME280;9983;51.114;13.788;2023-02-19T14:57:00;99851.34;;;8.25;87.71
19672;BME280;9983;51.114;13.788;2023-02-19T15:02:13;99861.56;;;7.85;90.96
19672;BME280;9983;51.114;13.788;2023-02-19T15:07:16;99864.69;;;8.25;89.28
19672;BME280;9983;51.114;13.788;2023-02-19T15:12:23;99868.38;;;7.97;89.55
19672;BME280;9983;51.114;13.788;2023-02-19T15:17:27;99865.06;;;8.30;89.06
19672;BME280;9983;51.114;13.788;2023-02-19T15:22:29;99875.91;;;8.11;91.56
19672;BME280;9983;51.114;13.788;2023-02-19T15:27:31;99870.28;;;8.05;88.05
19672;BME280;9983;51.114;13.788;2023-02-19T15:32:32;99881.31;;;7.92;84.08
19672;BME280;9983;51.114;13.788;2023-02-19T15:37:34;99869.84;;;7.82;85.49
19672;BME280;9983;51.114;13.788;2023-02-19T15:42:35;99876.19;;;8.08;85.03
19672;BME280;9983;51.114;13.788;2023-02-19T15:47:41;99902.25;;;7.59;85.95
19672;BME280;9983;51.114;13.788;2023-02-19T15:52:59;99931.25;;;7.35;87.11
19672;BME280;9983;51.114;13.788;2023-02-19T15:58:07;99909.06;;;7.25;87.57
19672;BME280;9983;51.114;13.788;2023-02-19T16:03:19;99910.19;;;7.32;88.73
19672;BME280;9983;51.114;13.788;2023-02-19T16:08:20;99909.41;;;7.03;89.24
19672;BME280;9983;51.114;13.788;2023-02-19T16:13:32;99908.75;;;7.28;88.66
19672;BME280;9983;51.114;13.788;2023-02-19T16:18:33;99909.94;;;6.97;91.31
19672;BME280;9983;51.114;13.788;2023-02-19T16:23:33;99909.59;;;7.29;89.91
19672;BME280;9983;51.114;13.788;2023-02-19T16:28:38;99899.56;;;6.94;91.66
19672;BME280;9983;51.114;13.788;2023-02-19T16:33:41;99906.84;;;7.11;90.51
19672;BME280;9983;51.114;13.788;2023-02-19T16:49:20;99964.09;;;6.68;95.20
19672;BME280;9983;51.114;13.788;2023-02-19T16:54:21;99976.41;;;6.79;94.86
19672;BME280;9983;51.114;13.788;2023-02-19T16:59:21;99984.00;;;6.83;94.05
19672;BME280;9983;51.114;13.788;2023-02-19T17:04:22;99995.25;;;6.77;93.86
19672;BME280;9983;51.114;13.788;2023-02-19T17:09:22;100010.63;;;6.64;95.66
19672;BME280;9983;51.114;13.788;2023-02-19T17:14:22;100021.31;;;6.83;94.26
19672;BME280;9983;51.114;13.788;2023-02-19T17:19:22;100026.53;;;6.45;97.74
19672;BME280;9983;51.114;13.788;2023-02-19T17:24:23;100019.31;;;6.66;96.60
19672;BME280;9983;51.114;13.788;2023-02-19T17:29:23;100035.63;;;6.33;97.48
19672;BME280;9983;51.114;13.788;2023-02-19T17:34:24;100039.97;;;6.34;97.37
19672;BME280;9983;51.114;13.788;2023-02-19T17:39:24;100046.69;;;6.38;97.57
19672;BME280;9983;51.114;13.788;2023-02-19T17:44:25;100051.78;;;6.41;96.88
19672;BME280;9983;51.114;13.788;2023-02-19T17:49:25;100055.06;;;6.24;97.86
19672;BME280;9983;51.114;13.788;2023-02-19T17:54:25;100062.50;;;6.30;98.41
19672;BME280;9983;51.114;13.788;2023-02-19T17:59:25;100078.75;;;6.57;99.37
19672;BME280;9983;51.114;13.788;2023-02-19T18:04:26;100079.28;;;6.51;100.00
19672;BME280;9983;51.114;13.788;2023-02-19T18:09:26;100064.38;;;6.39;100.00
19672;BME280;9983;51.114;13.788;2023-02-19T18:14:26;100076.72;;;6.40;100.00
19672;BME280;9983;51.114;13.788;2023-02-19T18:19:26;100084.72;;;6.40;100.00
19672;BME280;9983;51.114;13.788;2023-02-19T18:24:27;100090.47;;;6.45;100.00
19672;BME280;9983;51.114;13.788;2023-02-19T18:29:27;100081.44;;;6.27;100.00
19672;BME280;9983;51.114;13.788;2023-02-19T18:34:29;100091.19;;;6.17;100.00
19672;BME280;9983;51.114;13.788;2023-02-19T18:39:29;100095.19;;;6.32;100.00
19672;BME280;9983;51.114;13.788;2023-02-19T18:44:29;100088.41;;;5.86;100.00
19672;BME280;9983;51.114;13.788;2023-02-19T18:49:30;100096.91;;;5.91;100.00
19672;BME280;9983;51.114;13.788;2023-02-19T18:54:31;100095.81;;;5.62;100.00
19672;BME280;9983;51.114;13.788;2023-02-19T18:59:31;100098.16;;;5.23;100.00
19672;BME280;9983;51.114;13.788;2023-02-19T19:04:32;100103.00;;;5.18;100.00
19672;BME280;9983;51.114;13.788;2023-02-19T19:09:33;100110.19;;;5.39;100.00
19672;BME280;9983;51.114;13.788;2023-02-19T19:14:33;100110.09;;;5.29;100.00
19672;BME280;9983;51.114;13.788;2023-02-19T19:19:33;100117.09;;;4.65;100.00
19672;BME280;9983;51.114;13.788;2023-02-19T19:24:33;100128.41;;;4.89;100.00
19672;BME280;9983;51.114;13.788;2023-02-19T19:29:34;100134.69;;;4.21;100.00
19672;BME280;9983;51.114;13.788;2023-02-19T19:34:34;100118.78;;;4.77;100.00
19672;BME280;9983;51.114;13.788;2023-02-19T19:39:34;100122.66;;;4.84;100.00
19672;BME280;9983;51.114;13.788;2023-02-19T19:44:34;100122.88;;;4.70;100.00
19672;BME280;9983;51.114;13.788;2023-02-19T19:49:35;100127.22;;;4.37;100.00
19672;BME280;9983;51.114;13.788;2023-02-19T19:54:35;100118.78;;;4.54;100.00
19672;BME280;9983;51.114;13.788;2023-02-19T19:59:35;100124.88;;;4.10;100.00
19672;BME280;9983;51.114;13.788;2023-02-19T20:04:38;100122.50;;;4.07;100.00
19672;BME280;9983;51.114;13.788;2023-02-19T20:09:38;100134.34;;;3.21;100.00
19672;BME280;9983;51.114;13.788;2023-02-19T20:14:42;100125.06;;;3.85;100.00
19672;BME280;9983;51.114;13.788;2023-02-19T20:19:44;100131.28;;;4.08;100.00
19672;BME280;9983;51.114;13.788;2023-02-19T20:24:49;100125.22;;;3.84;100.00
19672;BME280;9983;51.114;13.788;2023-02-19T20:29:49;100128.00;;;3.11;100.00
19672;BME280;9983;51.114;13.788;2023-02-19T20:34:50;100120.16;;;3.92;100.00
19672;BME280;9983;51.114;13.788;2023-02-19T20:39:50;100109.63;;;2.96;100.00
19672;BME280;9983;51.114;13.788;2023-02-19T20:44:50;100114.94;;;2.96;100.00
19672;BME280;9983;51.114;13.788;2023-02-19T20:49:51;100118.44;;;3.21;100.00
19672;BME280;9983;51.114;13.788;2023-02-19T20:54:54;100133.97;;;3.01;100.00
19672;BME280;9983;51.114;13.788;2023-02-19T20:59:55;100142.00;;;3.13;100.00
19672;BME280;9983;51.114;13.788;2023-02-19T21:04:55;100146.50;;;2.87;100.00
19672;BME280;9983;51.114;13.788;2023-02-19T21:09:56;100168.28;;;3.16;100.00
19672;BME280;9983;51.114;13.788;2023-02-19T21:14:56;100158.94;;;3.10;100.00
19672;BME280;9983;51.114;13.788;2023-02-19T21:19:56;100166.00;;;2.98;100.00
19672;BME280;9983;51.114;13.788;2023-02-19T21:24:56;100181.00;;;3.11;100.00
19672;BME280;9983;51.114;13.788;2023-02-19T21:29:57;100183.03;;;2.94;100.00
19672;BME280;9983;51.114;13.788;2023-02-19T21:34:57;100192.94;;;2.92;100.00
19672;BME280;9983;51.114;13.788;2023-02-19T21:39:57;100186.16;;;2.63;100.00
19672;BME280;9983;51.114;13.788;2023-02-19T21:44:59;100193.53;;;3.09;100.00
19672;BME280;9983;51.114;13.788;2023-02-19T21:49:59;100183.13;;;3.05;100.00
19672;BME280;9983;51.114;13.788;2023-02-19T21:54:59;100192.97;;;2.67;100.00
19672;BME280;9983;51.114;13.788;2023-02-19T22:00:00;100188.22;;;3.09;100.00
19672;BME280;9983;51.114;13.788;2023-02-19T22:05:00;100184.97;;;2.92;100.00
19672;BME280;9983;51.114;13.788;2023-02-19T22:10:02;100195.28;;;2.84;100.00
19672;BME280;9983;51.114;13.788;2023-02-19T22:15:03;100176.63;;;2.73;100.00
19672;BME280;9983;51.114;13.788;2023-02-19T22:20:04;100181.06;;;2.85;100.00
19672;BME280;9983;51.114;13.788;2023-02-19T22:25:04;100167.31;;;2.80;100.00
19672;BME280;9983;51.114;13.788;2023-02-19T22:30:07;100160.38;;;2.41;100.00
19672;BME280;9983;51.114;13.788;2023-02-19T22:35:07;100154.19;;;2.66;100.00
19672;BME280;9983;51.114;13.788;2023-02-19T22:40:08;100143.31;;;2.94;100.00
19672;BME280;9983;51.114;13.788;2023-02-19T22:45:10;100140.44;;;2.36;100.00
19672;BME280;9983;51.114;13.788;2023-02-19T22:50:18;100154.22;;;2.41;100.00
19672;BME280;9983;51.114;13.788;2023-02-19T22:55:19;100148.84;;;2.91;100.00
19672;BME280;9983;51.114;13.788;2023-02-19T23:00:20;100134.66;;;2.92;100.00
19672;BME280;9983;51.114;13.788;2023-02-19T23:05:21;100135.06;;;2.86;100.00
19672;BME280;9983;51.114;13.788;2023-02-19T23:10:23;100114.28;;;2.56;100.00
19672;BME280;9983;51.114;13.788;2023-02-19T23:15:23;100107.63;;;2.51;100.00
19672;BME280;9983;51.114;13.788;2023-02-19T23:20:23;100115.38;;;2.90;100.00
19672;BME280;9983;51.114;13.788;2023-02-19T23:25:24;100110.09;;;2.90;100.00
19672;BME280;9983;51.114;13.788;2023-02-19T23:30:24;100105.72;;;3.26;100.00
19672;BME280;9983;51.114;13.788;2023-02-19T23:35:25;100115.72;;;3.57;100.00
19672;BME280;9983;51.114;13.788;2023-02-19T23:40:25;100105.81;;;3.83;100.00
19672;BME280;9983;51.114;13.788;2023-02-19T23:45:25;100113.31;;;4.00;100.00
19672;BME280;9983;51.114;13.788;2023-02-19T23:50:26;100095.13;;;4.40;100.00
19672;BME280;9983;51.114;13.788;2023-02-19T23:55:26;100083.16;;;3.90;100.00
